CheckWX is a tool to help pilots better visualize weather data.  It is not intended as a substitute for an official pre-flight weather briefing.

15:12:04 UTC

KPSC TAF
Tri-Cities Airport
Pasco, Washington, USA
KPSC 231120Z 2312/2412 17008KT P6SM BKN090 FM240200 25008KT P6SM OVC050 FM240900 25010KT 6SM -RA OVC030

Mar-23@
12:00 UTC

Mar-23 @ 12:00 UTC

Mar-24@
02:00 UTC

Mar-24 @ 02:00 UTC

KPSC 231120Z 2312/2412 17008KT P6SM BKN090
Wind
  • 170° at 8 KTS
Cloud Levels
  • Broken at 9,000' AGL

Mar-24@
02:00 UTC

Mar-24 @ 02:00 UTC

Mar-24@
09:00 UTC

Mar-24 @ 09:00 UTC

FM240200 25008KT P6SM OVC050

From

From Standard forecast or significant change

Wind
  • 250° at 8 KTS
Cloud Levels
  • Overcast at 5,000' AGL

Mar-24@
09:00 UTC

Mar-24 @ 09:00 UTC

Mar-24@
12:00 UTC

Mar-24 @ 12:00 UTC

FM240900 25010KT 6SM -RA OVC030

From

From Standard forecast or significant change

Wind
  • 250° at 10 KTS
Conditions
Light Rain
Cloud Levels
  • Overcast at 3,000' AGL